createdAt,value
2023-04-03T00:02:08.482Z,102383.28
2023-04-03T00:04:35.826Z,102382.63
2023-04-03T00:07:02.650Z,102391.19
2023-04-03T00:09:29.394Z,102390.06
2023-04-03T00:11:56.142Z,102385.84
2023-04-03T00:14:22.891Z,102391.75
2023-04-03T00:16:49.686Z,102390.97
2023-04-03T00:19:16.455Z,102388.50
2023-04-03T00:21:43.269Z,102386.66
2023-04-03T00:24:10.265Z,102395.47
2023-04-03T00:26:37.064Z,102391.72
2023-04-03T00:29:03.820Z,102395.09
2023-04-03T00:31:30.613Z,102399.66
2023-04-03T00:33:57.442Z,102391.22
2023-04-03T00:36:24.229Z,102391.44
2023-04-03T00:38:51.012Z,102399.50
2023-04-03T00:41:17.781Z,102403.31
2023-04-03T00:43:44.514Z,102398.16
2023-04-03T00:46:11.627Z,102399.00
2023-04-03T00:48:38.471Z,102400.06
2023-04-03T00:51:05.225Z,102403.78
2023-04-03T00:53:31.968Z,102405.09
2023-04-03T00:55:59.093Z,102396.25
2023-04-03T00:58:25.899Z,102403.19
2023-04-03T01:00:56.919Z,102408.47
2023-04-03T01:03:23.932Z,102406.22
2023-04-03T01:05:50.790Z,102404.28
2023-04-03T01:08:17.538Z,102406.13
2023-04-03T01:10:44.309Z,102405.91
2023-04-03T01:13:11.247Z,102407.91
2023-04-03T01:15:37.977Z,102410.66
2023-04-03T01:18:05.604Z,102415.19
2023-04-03T01:20:32.554Z,102416.59
2023-04-03T01:22:59.367Z,102417.66
2023-04-03T01:25:26.206Z,102413.63
2023-04-03T01:27:52.994Z,102420.66
2023-04-03T01:30:19.790Z,102420.09
2023-04-03T01:32:46.589Z,102423.88
2023-04-03T01:35:13.336Z,102414.38
2023-04-03T01:37:40.167Z,102414.88
2023-04-03T01:40:07.856Z,102423.75
2023-04-03T01:42:34.596Z,102420.47
2023-04-03T01:45:01.350Z,102421.53
2023-04-03T01:47:28.131Z,102418.47
2023-04-03T01:49:54.924Z,102423.91
2023-04-03T01:52:21.696Z,102425.31
2023-04-03T01:54:48.446Z,102435.84
2023-04-03T01:57:16.016Z,102436.81
2023-04-03T01:59:42.822Z,102429.84
2023-04-03T02:02:09.603Z,102426.63
2023-04-03T02:04:36.356Z,102430.72
2023-04-03T02:07:03.146Z,102434.88
2023-04-03T02:09:29.924Z,102434.50
2023-04-03T02:11:56.838Z,102439.56
2023-04-03T02:14:24.490Z,102432.31
2023-04-03T02:16:51.322Z,102435.44
2023-04-03T02:19:18.171Z,102437.81
2023-04-03T02:21:44.920Z,102441.19
2023-04-03T02:24:11.692Z,102447.50
2023-04-03T02:26:38.444Z,102440.25
2023-04-03T02:29:05.324Z,102442.91
2023-04-03T02:31:32.222Z,102446.00
2023-04-03T02:33:59.000Z,102446.41
2023-04-03T02:36:25.847Z,102448.59
2023-04-03T02:38:52.629Z,102451.22
2023-04-03T02:41:19.461Z,102449.13
2023-04-03T02:43:46.309Z,102456.41
2023-04-03T02:46:15.884Z,102461.34
2023-04-03T02:48:42.664Z,102459.34
2023-04-03T02:51:09.406Z,102460.97
2023-04-03T02:53:36.184Z,102461.09
2023-04-03T02:56:02.937Z,102464.69
2023-04-03T02:58:29.694Z,102466.03
2023-04-03T03:00:56.485Z,102458.34
2023-04-03T03:03:23.846Z,102462.03
2023-04-03T03:05:50.688Z,102458.44
2023-04-03T03:08:20.956Z,102470.09
2023-04-03T03:10:47.732Z,102462.50
2023-04-03T03:13:14.557Z,102466.81
2023-04-03T03:15:41.353Z,102474.41
2023-04-03T03:18:08.261Z,102473.63
2023-04-03T03:20:35.616Z,102470.28
2023-04-03T03:23:02.561Z,102471.81
2023-04-03T03:25:29.353Z,102479.50
2023-04-03T03:27:56.110Z,102476.84
2023-04-03T03:30:22.899Z,102481.97
2023-04-03T03:32:49.741Z,102473.56
2023-04-03T03:35:16.594Z,102475.25
2023-04-03T03:37:43.388Z,102477.00
2023-04-03T03:40:10.151Z,102479.34
2023-04-03T03:42:36.899Z,102481.19
2023-04-03T03:45:03.692Z,102478.00
2023-04-03T03:47:30.528Z,102480.28
2023-04-03T03:49:57.302Z,102486.16
2023-04-03T03:52:24.103Z,102481.53
2023-04-03T03:54:50.834Z,102473.78
2023-04-03T03:57:17.651Z,102486.34
2023-04-03T03:59:45.164Z,102481.13
2023-04-03T04:02:11.975Z,102470.97
2023-04-03T04:04:38.769Z,102470.78
2023-04-03T04:07:05.735Z,102485.31
2023-04-03T04:09:32.522Z,102482.94
2023-04-03T04:11:59.258Z,102476.88
2023-04-03T04:14:26.110Z,102477.94
2023-04-03T04:16:52.911Z,102485.63
2023-04-03T04:19:19.720Z,102492.09
2023-04-03T04:21:46.515Z,102498.16
2023-04-03T04:24:13.243Z,102490.34
2023-04-03T04:26:40.097Z,102504.69
2023-04-03T04:29:06.872Z,102506.88
2023-04-03T04:31:33.639Z,102509.91
2023-04-03T04:34:00.980Z,102516.28
2023-04-03T04:36:27.874Z,102512.06
2023-04-03T04:38:54.756Z,102520.34
2023-04-03T04:41:23.260Z,102517.41
2023-04-03T04:43:50.174Z,102519.63
2023-04-03T04:46:17.040Z,102519.28
2023-04-03T04:48:43.836Z,102523.38
2023-04-03T04:51:10.740Z,102526.41
2023-04-03T04:53:37.492Z,102524.06
2023-04-03T04:56:04.254Z,102534.22
2023-04-03T04:58:31.079Z,102534.16
2023-04-03T05:00:57.816Z,102537.28
2023-04-03T05:03:24.577Z,102534.38
2023-04-03T05:05:51.472Z,102539.69
2023-04-03T05:08:18.226Z,102539.91
2023-04-03T05:10:45.201Z,102544.34
2023-04-03T05:13:11.982Z,102553.19
2023-04-03T05:15:38.897Z,102545.13
2023-04-03T05:18:06.033Z,102554.66
2023-04-03T05:20:32.857Z,102547.50
2023-04-03T05:22:59.606Z,102546.91
2023-04-03T05:25:27.163Z,102538.44
2023-04-03T05:27:54.077Z,102538.84
2023-04-03T05:30:20.882Z,102542.53
2023-04-03T05:32:47.648Z,102544.53
2023-04-03T05:35:14.460Z,102542.03
2023-04-03T05:37:41.727Z,102544.53
2023-04-03T05:40:08.624Z,102543.84
2023-04-03T05:42:35.639Z,102539.66
2023-04-03T05:45:02.392Z,102549.44
2023-04-03T05:47:29.180Z,102545.59
2023-04-03T05:49:56.029Z,102540.00
2023-04-03T05:52:22.906Z,102550.47
2023-04-03T05:54:49.778Z,102540.63
2023-04-03T05:57:17.018Z,102541.75
2023-04-03T05:59:43.950Z,102550.25
2023-04-03T06:02:11.032Z,102553.84
2023-04-03T06:04:38.128Z,102556.13
2023-04-03T06:07:05.008Z,102560.53
2023-04-03T06:09:31.762Z,102563.13
2023-04-03T06:11:59.560Z,102563.06
2023-04-03T06:14:26.724Z,102560.72
2023-04-03T06:16:53.705Z,102553.97
2023-04-03T06:19:20.977Z,102568.63
2023-04-03T06:21:48.157Z,102566.78
2023-04-03T06:24:14.932Z,102582.16
2023-04-03T06:26:41.719Z,102574.84
2023-04-03T06:29:08.633Z,102577.50
2023-04-03T06:31:36.416Z,102578.13
2023-04-03T06:34:03.531Z,102580.63
2023-04-03T06:36:30.760Z,102583.38
2023-04-03T06:38:57.592Z,102572.72
2023-04-03T06:41:24.409Z,102580.06
2023-04-03T06:43:51.660Z,102588.16
2023-04-03T06:46:18.545Z,102581.28
2023-04-03T06:48:45.504Z,102579.78
2023-04-03T06:51:12.698Z,102584.84
2023-04-03T06:53:39.504Z,102585.31
2023-04-03T06:56:06.495Z,102593.53
2023-04-03T06:58:33.258Z,102595.97
2023-04-03T07:01:01.005Z,102592.28
2023-04-03T07:03:28.779Z,102587.44
2023-04-03T07:05:56.269Z,102595.22
2023-04-03T07:08:24.578Z,102599.84
2023-04-03T07:10:51.343Z,102608.34
2023-04-03T07:13:18.171Z,102604.72
2023-04-03T07:15:44.983Z,102606.25
2023-04-03T07:18:12.192Z,102612.53
2023-04-03T07:20:38.975Z,102608.78
2023-04-03T07:23:05.898Z,102613.06
2023-04-03T07:25:32.760Z,102606.81
2023-04-03T07:27:59.538Z,102609.69
2023-04-03T07:30:27.171Z,102610.00
2023-04-03T07:32:54.042Z,102614.94
2023-04-03T07:35:20.842Z,102622.44
2023-04-03T07:37:47.570Z,102620.44
2023-04-03T07:40:14.806Z,102623.41
2023-04-03T07:42:41.598Z,102621.50
2023-04-03T07:45:09.041Z,102629.09
2023-04-03T07:47:36.077Z,102617.69
2023-04-03T07:50:02.916Z,102620.53
2023-04-03T07:52:29.680Z,102616.84
2023-04-03T07:54:56.515Z,102612.66
2023-04-03T07:57:23.327Z,102614.44
2023-04-03T07:59:50.387Z,102612.38
2023-04-03T08:02:17.560Z,102619.22
2023-04-03T08:04:44.446Z,102621.97
2023-04-03T08:07:11.268Z,102618.22
2023-04-03T08:09:38.123Z,102618.47
2023-04-03T08:12:04.887Z,102620.28
2023-04-03T08:14:31.639Z,102622.09
2023-04-03T08:16:59.222Z,102619.56
2023-04-03T08:19:26.936Z,102623.47
2023-04-03T08:21:53.962Z,102624.69
2023-04-03T08:24:21.091Z,102621.97
2023-04-03T08:26:47.891Z,102628.84
2023-04-03T08:29:14.662Z,102614.44
2023-04-03T08:31:41.446Z,102621.00
2023-04-03T08:34:09.497Z,102630.59
2023-04-03T08:36:36.292Z,102619.56
2023-04-03T08:39:03.299Z,102622.34
2023-04-03T08:41:31.766Z,102618.16
2023-04-03T08:43:58.723Z,102628.25
2023-04-03T08:46:26.952Z,102613.75
2023-04-03T08:48:53.734Z,102616.00
2023-04-03T08:51:21.082Z,102621.59
2023-04-03T08:53:47.884Z,102622.66
2023-04-03T08:56:15.695Z,102609.63
2023-04-03T08:58:42.695Z,102622.31
2023-04-03T09:01:09.551Z,102618.91
2023-04-03T09:03:36.448Z,102618.47
2023-04-03T09:06:03.199Z,102627.88
2023-04-03T09:08:30.623Z,102631.19
2023-04-03T09:10:57.364Z,102627.22
2023-04-03T09:13:24.092Z,102619.28
2023-04-03T09:15:50.849Z,102631.88
2023-04-03T09:18:17.835Z,102630.47
2023-04-03T09:20:44.623Z,102625.94
2023-04-03T09:23:11.491Z,102625.03
2023-04-03T09:25:38.226Z,102624.91
2023-04-03T09:28:05.446Z,102631.34
2023-04-03T09:30:32.231Z,102628.09
2023-04-03T09:32:59.059Z,102616.81
2023-04-03T09:35:32.788Z,102619.38
2023-04-03T09:38:07.095Z,102628.03
2023-04-03T09:40:36.031Z,102614.94
2023-04-03T09:43:03.181Z,102614.94
2023-04-03T09:45:29.949Z,102613.25
2023-04-03T09:47:58.145Z,102608.75
2023-04-03T09:50:24.984Z,102602.22
2023-04-03T09:52:52.607Z,102602.22
2023-04-03T09:55:19.494Z,102598.63
2023-04-03T09:57:46.793Z,102597.63
2023-04-03T10:00:15.705Z,102606.06
2023-04-03T10:02:42.459Z,102605.88
2023-04-03T10:05:10.099Z,102604.00
2023-04-03T10:07:38.143Z,102591.81
2023-04-03T10:10:05.024Z,102595.25
2023-04-03T10:12:31.848Z,102586.63
2023-04-03T10:14:58.668Z,102584.69
2023-04-03T10:17:25.462Z,102600.03
2023-04-03T10:19:52.222Z,102594.91
2023-04-03T10:22:19.217Z,102596.09
2023-04-03T10:24:46.010Z,102587.25
2023-04-03T10:27:12.868Z,102587.69
2023-04-03T10:29:39.686Z,102589.63
2023-04-03T10:32:06.930Z,102596.75
2023-04-03T10:34:33.737Z,102587.66
2023-04-03T10:37:00.509Z,102585.50
2023-04-03T10:39:30.541Z,102594.69
2023-04-03T10:42:05.720Z,102580.13
2023-04-03T10:44:36.364Z,102585.16
2023-04-03T10:47:03.215Z,102592.31
2023-04-03T10:49:29.963Z,102577.75
2023-04-03T10:51:56.764Z,102579.50
2023-04-03T10:54:23.499Z,102573.31
2023-04-03T10:56:58.028Z,102564.19
2023-04-03T10:59:31.675Z,102562.66
2023-04-03T11:01:58.549Z,102568.19
2023-04-03T11:04:25.348Z,102554.69
2023-04-03T11:06:52.153Z,102550.66
2023-04-03T11:09:18.921Z,102551.53
2023-04-03T11:11:45.851Z,102556.16
2023-04-03T11:14:14.358Z,102550.25
2023-04-03T11:16:50.910Z,102541.25
2023-04-03T11:19:22.680Z,102544.16
2023-04-03T11:21:49.790Z,102550.16
2023-04-03T11:24:16.678Z,102547.59
2023-04-03T11:26:43.487Z,102541.91
2023-04-03T11:29:11.254Z,102542.53
2023-04-03T11:31:39.265Z,102543.03
2023-04-03T11:34:06.091Z,102545.03
2023-04-03T11:36:34.540Z,102551.53
2023-04-03T11:39:02.197Z,102550.31
2023-04-03T11:41:29.138Z,102541.06
2023-04-03T11:43:56.074Z,102538.59
2023-04-03T11:46:22.912Z,102541.91
2023-04-03T11:48:49.777Z,102537.16
2023-04-03T11:51:17.632Z,102530.53
2023-04-03T11:53:44.512Z,102529.41
2023-04-03T11:56:11.276Z,102527.41
2023-04-03T11:58:38.036Z,102530.91
2023-04-03T12:01:04.876Z,102522.22
2023-04-03T12:03:32.117Z,102527.22
2023-04-03T12:05:58.938Z,102522.50
2023-04-03T12:08:25.811Z,102517.06
2023-04-03T12:10:54.155Z,102513.13
2023-04-03T12:13:21.057Z,102509.81
2023-04-03T12:15:47.813Z,102505.94
2023-04-03T12:18:14.589Z,102502.06
2023-04-03T12:20:41.412Z,102502.31
2023-04-03T12:23:08.182Z,102499.34
2023-04-03T12:25:35.028Z,102509.03
2023-04-03T12:28:02.506Z,102497.16
2023-04-03T12:30:29.257Z,102506.09
2023-04-03T12:33:05.858Z,102498.25
2023-04-03T12:35:39.293Z,102498.00
2023-04-03T12:38:06.362Z,102495.16
2023-04-03T12:40:33.133Z,102489.75
2023-04-03T12:43:01.286Z,102486.53
2023-04-03T12:45:29.751Z,102490.44
2023-04-03T12:47:56.623Z,102480.09
2023-04-03T12:50:24.801Z,102487.63
2023-04-03T12:52:51.595Z,102478.56
2023-04-03T12:55:18.332Z,102478.41
2023-04-03T12:57:45.100Z,102473.75
2023-04-03T13:00:11.861Z,102485.22
2023-04-03T13:02:38.751Z,102474.19
2023-04-03T13:05:05.605Z,102483.81
2023-04-03T13:07:34.111Z,102470.84
2023-04-03T13:10:01.104Z,102480.66
2023-04-03T13:12:28.469Z,102477.06
2023-04-03T13:14:56.482Z,102479.47
2023-04-03T13:17:23.318Z,102476.22
2023-04-03T13:19:51.313Z,102477.47
2023-04-03T13:22:18.205Z,102473.63
2023-04-03T13:24:45.187Z,102462.34
2023-04-03T13:27:11.944Z,102464.78
2023-04-03T13:29:38.793Z,102462.69
2023-04-03T13:32:05.781Z,102465.50
2023-04-03T13:34:32.690Z,102473.50
2023-04-03T13:36:59.504Z,102469.25
2023-04-03T13:39:26.253Z,102461.28
2023-04-03T13:41:53.111Z,102459.09
2023-04-03T13:44:19.986Z,102459.00
2023-04-03T13:46:46.766Z,102459.47
2023-04-03T13:49:13.513Z,102466.03
2023-04-03T13:51:40.306Z,102461.09
2023-04-03T13:54:07.139Z,102459.50
2023-04-03T13:56:33.945Z,102455.72
2023-04-03T13:59:00.732Z,102453.44
2023-04-03T14:01:27.624Z,102450.75
2023-04-03T14:03:54.432Z,102453.41
2023-04-03T14:06:21.588Z,102456.34
2023-04-03T14:08:49.796Z,102459.19
2023-04-03T14:11:17.102Z,102459.00
2023-04-03T14:13:43.920Z,102453.09
2023-04-03T14:16:15.874Z,102449.72
2023-04-03T14:18:43.704Z,102449.72
2023-04-03T14:21:10.523Z,102454.84
2023-04-03T14:23:37.602Z,102435.22
2023-04-03T14:26:04.717Z,102453.47
2023-04-03T14:28:31.836Z,102447.41
2023-04-03T14:30:58.605Z,102453.28
2023-04-03T14:33:27.114Z,102439.34
2023-04-03T14:35:55.693Z,102437.81
2023-04-03T14:38:23.934Z,102442.38
2023-04-03T14:40:50.758Z,102443.34
2023-04-03T14:43:18.608Z,102448.56
2023-04-03T14:45:45.351Z,102440.50
2023-04-03T14:48:12.126Z,102439.28
2023-04-03T14:50:39.309Z,102436.41
2023-04-03T14:53:06.231Z,102431.19
2023-04-03T14:55:32.999Z,102425.22
2023-04-03T14:57:59.856Z,102414.84
2023-04-03T15:00:26.606Z,102421.56
2023-04-03T15:02:53.571Z,102420.41
2023-04-03T15:05:20.707Z,102424.97
2023-04-03T15:07:47.538Z,102415.72
2023-04-03T15:10:14.310Z,102413.03
2023-04-03T15:12:41.191Z,102414.56
2023-04-03T15:15:08.084Z,102418.25
2023-04-03T15:17:35.065Z,102416.53
2023-04-03T15:20:01.912Z,102416.63
2023-04-03T15:22:28.670Z,102417.94
2023-04-03T15:24:55.433Z,102417.41
2023-04-03T15:27:22.222Z,102417.88
2023-04-03T15:29:49.181Z,102425.00
2023-04-03T15:32:16.235Z,102423.78
2023-04-03T15:34:43.198Z,102429.16
2023-04-03T15:37:10.215Z,102428.88
2023-04-03T15:39:36.962Z,102429.56
2023-04-03T15:42:07.062Z,102420.81
2023-04-03T15:44:34.517Z,102426.63
2023-04-03T15:47:01.249Z,102427.88
2023-04-03T15:49:28.024Z,102423.66
2023-04-03T15:51:54.779Z,102418.34
2023-04-03T15:54:21.531Z,102429.38
2023-04-03T15:56:48.307Z,102422.25
2023-04-03T15:59:15.258Z,102419.78
2023-04-03T16:01:42.041Z,102430.66
2023-04-03T16:04:08.826Z,102418.91
2023-04-03T16:06:35.872Z,102421.81
2023-04-03T16:09:02.674Z,102426.06
2023-04-03T16:11:29.466Z,102423.41
2023-04-03T16:13:56.233Z,102427.63
2023-04-03T16:16:23.140Z,102417.50
2023-04-03T16:18:50.118Z,102422.00
2023-04-03T16:21:17.048Z,102419.38
2023-04-03T16:23:43.813Z,102415.50
2023-04-03T16:26:10.572Z,102427.75
2023-04-03T16:28:37.392Z,102422.09
2023-04-03T16:31:04.180Z,102420.72
2023-04-03T16:33:31.024Z,102426.53
2023-04-03T16:35:57.782Z,102425.03
2023-04-03T16:38:24.646Z,102420.53
2023-04-03T16:40:51.714Z,102423.47
2023-04-03T16:43:18.458Z,102429.94
2023-04-03T16:45:45.375Z,102431.63
2023-04-03T16:48:12.235Z,102434.97
2023-04-03T16:50:39.062Z,102432.69
2023-04-03T16:53:09.056Z,102430.25
2023-04-03T16:55:36.398Z,102426.31
2023-04-03T16:58:03.137Z,102434.06
2023-04-03T17:00:29.892Z,102432.25
2023-04-03T17:02:56.681Z,102435.22
2023-04-03T17:05:24.962Z,102437.56
2023-04-03T17:07:51.693Z,102435.84
2023-04-03T17:10:18.451Z,102438.00
2023-04-03T17:12:45.336Z,102442.66
2023-04-03T17:15:12.092Z,102434.38
2023-04-03T17:17:38.862Z,102444.91
2023-04-03T17:20:05.729Z,102437.13
2023-04-03T17:22:33.062Z,102435.34
2023-04-03T17:24:59.858Z,102439.47
2023-04-03T17:27:27.214Z,102439.75
2023-04-03T17:29:54.004Z,102432.09
2023-04-03T17:32:20.920Z,102439.44
2023-04-03T17:34:47.938Z,102439.28
2023-04-03T17:37:14.725Z,102439.81
2023-04-03T17:39:41.557Z,102438.13
2023-04-03T17:42:08.308Z,102435.56
2023-04-03T17:44:35.131Z,102442.66
2023-04-03T17:47:02.919Z,102436.88
2023-04-03T17:49:29.682Z,102435.28
2023-04-03T17:51:56.759Z,102435.06
2023-04-03T17:54:23.530Z,102440.47
2023-04-03T17:56:50.607Z,102429.66
2023-04-03T17:59:17.430Z,102435.28
2023-04-03T18:01:44.285Z,102435.34
2023-04-03T18:04:11.220Z,102436.94
2023-04-03T18:06:38.436Z,102433.03
2023-04-03T18:09:05.227Z,102443.38
2023-04-03T18:11:32.016Z,102444.28
2023-04-03T18:14:00.167Z,102431.69
2023-04-03T18:16:27.789Z,102442.63
2023-04-03T18:19:11.647Z,102442.44
2023-04-03T18:21:41.876Z,102445.56
2023-04-03T18:24:08.656Z,102444.03
2023-04-03T18:26:35.436Z,102447.75
2023-04-03T18:29:02.279Z,102446.06
2023-04-03T18:31:31.087Z,102451.38
2023-04-03T18:33:58.913Z,102451.59
2023-04-03T18:36:26.217Z,102447.81
2023-04-03T18:38:53.039Z,102447.81
2023-04-03T18:41:22.413Z,102449.31
2023-04-03T18:43:49.257Z,102448.66
2023-04-03T18:46:16.061Z,102452.16
2023-04-03T18:48:43.530Z,102450.28
2023-04-03T18:51:10.338Z,102442.75
2023-04-03T18:53:37.074Z,102452.09
2023-04-03T18:56:03.811Z,102450.75
2023-04-03T18:58:31.493Z,102458.03
2023-04-03T19:00:58.268Z,102459.75
2023-04-03T19:03:25.157Z,102456.31
2023-04-03T19:05:52.151Z,102461.25
2023-04-03T19:08:18.929Z,102456.28
2023-04-03T19:10:45.671Z,102453.13
2023-04-03T19:13:12.490Z,102460.63
2023-04-03T19:15:39.285Z,102454.94
2023-04-03T19:18:06.132Z,102454.97
2023-04-03T19:20:32.947Z,102461.84
2023-04-03T19:22:59.711Z,102473.53
2023-04-03T19:25:26.453Z,102462.69
2023-04-03T19:27:53.236Z,102462.44
2023-04-03T19:30:20.061Z,102463.47
2023-04-03T19:32:46.860Z,102464.69
2023-04-03T19:35:13.740Z,102464.59
2023-04-03T19:37:40.578Z,102467.09
2023-04-03T19:40:07.379Z,102467.94
2023-04-03T19:42:36.605Z,102467.44
2023-04-03T19:45:03.360Z,102466.03
2023-04-03T19:47:30.193Z,102474.97
2023-04-03T19:49:57.010Z,102474.41
2023-04-03T19:52:23.785Z,102464.16
2023-04-03T19:54:51.768Z,102471.25
2023-04-03T19:57:19.749Z,102467.72
2023-04-03T19:59:46.634Z,102469.47
2023-04-03T20:02:13.394Z,102472.31
2023-04-03T20:04:40.330Z,102466.19
2023-04-03T20:07:07.266Z,102462.81
2023-04-03T20:09:34.480Z,102460.06
2023-04-03T20:12:01.976Z,102467.91
2023-04-03T20:14:29.041Z,102452.03
2023-04-03T20:16:55.872Z,102451.88
2023-04-03T20:19:26.863Z,102457.00
2023-04-03T20:21:54.028Z,102454.97
2023-04-03T20:24:20.962Z,102457.69
2023-04-03T20:26:47.786Z,102449.59
2023-04-03T20:29:14.574Z,102447.41
2023-04-03T20:31:41.977Z,102456.91
2023-04-03T20:34:09.176Z,102455.78
2023-04-03T20:36:36.771Z,102455.03
2023-04-03T20:39:03.755Z,102453.78
2023-04-03T20:41:32.148Z,102448.06
2023-04-03T20:44:00.299Z,102449.91
2023-04-03T20:46:42.057Z,102442.19
2023-04-03T20:49:15.370Z,102445.59
2023-04-03T20:51:42.259Z,102442.28
2023-04-03T20:54:09.571Z,102443.03
2023-04-03T20:56:36.355Z,102446.06
2023-04-03T20:59:04.653Z,102446.94
2023-04-03T21:01:31.539Z,102432.56
2023-04-03T21:04:02.256Z,102434.81
2023-04-03T21:06:29.038Z,102426.69
2023-04-03T21:08:55.840Z,102429.06
2023-04-03T21:11:23.650Z,102419.69
2023-04-03T21:13:50.537Z,102424.41
2023-04-03T21:16:17.358Z,102424.53
2023-04-03T21:18:44.143Z,102426.97
2023-04-03T21:21:10.898Z,102428.13
2023-04-03T21:23:37.651Z,102426.84
2023-04-03T21:26:04.429Z,102421.00
2023-04-03T21:28:31.580Z,102421.88
2023-04-03T21:30:58.317Z,102414.84
2023-04-03T21:33:25.093Z,102417.69
2023-04-03T21:35:57.656Z,102419.41
2023-04-03T21:38:25.912Z,102423.28
2023-04-03T21:40:52.751Z,102426.81
2023-04-03T21:43:19.553Z,102415.97
2023-04-03T21:45:47.837Z,102424.25
2023-04-03T21:48:19.038Z,102411.16
2023-04-03T21:50:45.903Z,102416.28
2023-04-03T21:53:12.670Z,102408.16
2023-04-03T21:55:39.619Z,102409.50
2023-04-03T21:58:07.154Z,102414.34
2023-04-03T22:00:34.045Z,102404.69
2023-04-03T22:03:09.962Z,102407.25
2023-04-03T22:05:37.467Z,102408.59
2023-04-03T22:08:04.344Z,102402.03
2023-04-03T22:10:31.510Z,102400.19
2023-04-03T22:12:58.242Z,102397.50
2023-04-03T22:15:25.026Z,102391.91
2023-04-03T22:17:51.789Z,102395.25
2023-04-03T22:20:18.589Z,102394.53
2023-04-03T22:22:45.637Z,102387.00
2023-04-03T22:25:12.529Z,102394.97
2023-04-03T22:27:39.360Z,102391.41
2023-04-03T22:30:06.144Z,102388.94
2023-04-03T22:32:33.099Z,102384.75
2023-04-03T22:35:00.167Z,102385.44
2023-04-03T22:37:27.244Z,102390.09
2023-04-03T22:39:53.981Z,102392.66
2023-04-03T22:42:21.214Z,102382.63
2023-04-03T22:44:48.044Z,102388.72
2023-04-03T22:47:14.819Z,102393.00
2023-04-03T22:49:41.751Z,102395.19
2023-04-03T22:52:08.572Z,102390.97
2023-04-03T22:54:35.446Z,102394.78
2023-04-03T22:57:02.200Z,102399.78
2023-04-03T22:59:29.124Z,102395.69
2023-04-03T23:01:55.980Z,102395.34
2023-04-03T23:04:22.827Z,102393.75
2023-04-03T23:06:49.690Z,102396.84
2023-04-03T23:09:16.948Z,102401.09
2023-04-03T23:11:43.770Z,102391.72
2023-04-03T23:14:10.763Z,102387.13
2023-04-03T23:16:37.569Z,102392.91
2023-04-03T23:19:04.426Z,102390.13
2023-04-03T23:21:31.322Z,102388.31
2023-04-03T23:23:58.083Z,102398.31
2023-04-03T23:26:25.391Z,102390.84
2023-04-03T23:28:52.186Z,102392.75
2023-04-03T23:31:18.928Z,102395.84
2023-04-03T23:33:45.922Z,102397.09
2023-04-03T23:36:13.357Z,102398.91
2023-04-03T23:38:40.177Z,102389.31
2023-04-03T23:41:07.024Z,102398.13
2023-04-03T23:43:33.868Z,102395.72
2023-04-03T23:46:00.727Z,102391.94
2023-04-03T23:48:27.530Z,102392.69
2023-04-03T23:50:54.283Z,102397.53
2023-04-03T23:53:21.488Z,102391.13
2023-04-03T23:55:48.369Z,102397.03
2023-04-03T23:58:15.745Z,102394.28
